Toledo, Indiana
Current Conditions -  °F | °C
As of 7:35 PM on Monday 22 Dec 2014 (Local Time) from KHHG Reporting Station
Light Rain Light Rain  
Wind Chill: 30°   Ceiling: 3600
Heat Index: 37°   Visibility: 5mi
Dew Point: 36°   Wind: 8mph
Humidity: 97%   Direction: 100°E
Pressure: 29.78"   Gusts: NA
Location:  40.9238°N, 85.5001°W
Report Text: KHHG 230035Z AUTO 10007KT 5SM -RA BKN036 BKN049 OVC085 03/02 A2978 RMK AO2 P0001 T00250020
Loading
Personal Weather Stations






























Interactive Weather Map New forecast layout! Learn more

10-Day Weather Forecast

Advertisements
Track Severe Weather on mobile